createdAt,value
2023-02-17T00:00:55.271Z,74.65
2023-02-17T00:03:23.722Z,74.78
2023-02-17T00:05:52.929Z,74.88
2023-02-17T00:08:20.774Z,74.90
2023-02-17T00:10:59.324Z,74.95
2023-02-17T00:13:27.760Z,74.99
2023-02-17T00:15:55.814Z,74.79
2023-02-17T00:18:23.651Z,74.73
2023-02-17T00:20:53.095Z,74.70
2023-02-17T00:23:20.859Z,74.68
2023-02-17T00:25:48.568Z,74.76
2023-02-17T00:28:16.294Z,74.93
2023-02-17T00:30:44.059Z,74.89
2023-02-17T00:33:11.743Z,74.62
2023-02-17T00:35:41.658Z,74.32
2023-02-17T00:38:10.787Z,74.96
2023-02-17T00:40:38.958Z,74.70
2023-02-17T00:43:07.156Z,74.83
2023-02-17T00:45:35.125Z,74.73
2023-02-17T00:48:02.866Z,74.50
2023-02-17T00:50:30.672Z,74.69
2023-02-17T00:52:58.428Z,74.58
2023-02-17T00:55:27.694Z,74.40
2023-02-17T00:57:55.423Z,74.52
2023-02-17T01:00:23.673Z,74.38
2023-02-17T01:02:51.428Z,73.86
2023-02-17T01:05:19.271Z,73.45
2023-02-17T01:07:47.025Z,73.76
2023-02-17T01:10:15.160Z,73.91
2023-02-17T01:12:44.248Z,73.62
2023-02-17T01:15:12.170Z,73.54
2023-02-17T01:17:39.967Z,73.51
2023-02-17T01:20:09.024Z,73.76
2023-02-17T01:22:36.936Z,73.74
2023-02-17T01:25:04.886Z,73.60
2023-02-17T01:27:32.692Z,73.69
2023-02-17T01:30:01.862Z,73.72
2023-02-17T01:32:29.590Z,73.64
2023-02-17T01:34:57.285Z,73.41
2023-02-17T01:37:25.031Z,73.42
2023-02-17T01:39:52.724Z,73.49
2023-02-17T01:42:21.638Z,73.41
2023-02-17T01:45:29.138Z,73.31
2023-02-17T01:48:00.871Z,73.33
2023-02-17T01:50:32.789Z,73.42
2023-02-17T01:53:02.712Z,73.33
2023-02-17T01:55:31.396Z,73.25
2023-02-17T01:58:02.234Z,73.21
2023-02-17T02:00:33.682Z,73.27
2023-02-17T02:03:03.030Z,73.16
2023-02-17T02:05:31.617Z,73.08
2023-02-17T02:07:59.436Z,73.06
2023-02-17T02:10:27.220Z,73.14
2023-02-17T02:12:54.948Z,73.04
2023-02-17T02:15:26.037Z,73.08
2023-02-17T02:18:09.761Z,73.18
2023-02-17T02:21:04.635Z,72.90
2023-02-17T02:23:53.931Z,72.86
2023-02-17T02:26:50.961Z,73.09
2023-02-17T02:29:46.790Z,72.83
2023-02-17T02:32:49.689Z,72.67
2023-02-17T02:35:22.011Z,72.75
2023-02-17T02:37:54.468Z,72.91
2023-02-17T02:40:27.360Z,72.62
2023-02-17T02:42:57.157Z,72.58
2023-02-17T02:45:24.934Z,72.59
2023-02-17T02:47:55.856Z,72.73
2023-02-17T02:50:37.221Z,72.64
2023-02-17T02:53:25.913Z,72.84
2023-02-17T02:55:58.819Z,72.67
2023-02-17T02:58:36.982Z,72.74
2023-02-17T03:01:14.278Z,72.64
2023-02-17T03:03:49.863Z,72.50
2023-02-17T03:06:26.357Z,72.49
2023-02-17T03:08:58.801Z,72.56
2023-02-17T03:11:33.234Z,72.54
2023-02-17T03:14:02.605Z,72.52
2023-02-17T03:16:30.608Z,72.77
2023-02-17T03:18:59.684Z,72.66
2023-02-17T03:21:34.579Z,72.65
2023-02-17T03:24:02.292Z,72.35
2023-02-17T03:26:29.976Z,72.58
2023-02-17T03:28:57.657Z,72.54
2023-02-17T03:31:25.475Z,72.44
2023-02-17T03:33:53.268Z,72.49
2023-02-17T03:36:22.375Z,72.52
2023-02-17T03:38:50.198Z,72.54
2023-02-17T03:41:17.954Z,72.57
2023-02-17T03:43:45.664Z,72.43
2023-02-17T03:46:14.398Z,72.31
2023-02-17T03:48:42.368Z,72.45
2023-02-17T03:51:14.865Z,72.58
2023-02-17T03:53:44.714Z,72.41
2023-02-17T03:56:13.307Z,72.42
2023-02-17T03:58:41.752Z,72.54
2023-02-17T04:01:12.281Z,72.64
2023-02-17T04:03:40.953Z,72.49
2023-02-17T04:06:09.655Z,72.41
2023-02-17T04:08:37.696Z,72.38
2023-02-17T04:11:09.732Z,72.39
2023-02-17T04:13:37.808Z,72.40
2023-02-17T04:16:06.986Z,72.29
2023-02-17T04:18:35.201Z,72.25
2023-02-17T04:21:03.351Z,72.20
2023-02-17T04:23:31.056Z,72.52
2023-02-17T04:25:58.795Z,72.37
2023-02-17T04:28:28.077Z,72.00
2023-02-17T04:30:55.849Z,72.22
2023-02-17T04:33:23.592Z,72.21
2023-02-17T04:35:51.337Z,72.31
2023-02-17T04:38:19.102Z,72.31
2023-02-17T04:40:46.819Z,72.41
2023-02-17T04:43:14.468Z,72.34
2023-02-17T04:45:43.589Z,72.24
2023-02-17T04:48:11.395Z,72.32
2023-02-17T04:50:39.176Z,72.41
2023-02-17T04:53:06.931Z,72.48
2023-02-17T04:55:34.748Z,72.53
2023-02-17T04:58:02.551Z,72.42
2023-02-17T05:00:30.577Z,72.72
2023-02-17T05:02:59.660Z,72.47
2023-02-17T05:05:27.370Z,72.70
2023-02-17T05:07:55.116Z,72.70
2023-02-17T05:10:24.125Z,72.77
2023-02-17T05:12:52.324Z,72.99
2023-02-17T05:15:20.290Z,72.73
2023-02-17T05:17:47.952Z,72.86
2023-02-17T05:20:17.075Z,72.97
2023-02-17T05:22:44.798Z,73.07
2023-02-17T05:25:12.507Z,72.98
2023-02-17T05:27:40.248Z,73.04
2023-02-17T05:30:08.890Z,72.98
2023-02-17T05:32:36.596Z,72.99
2023-02-17T05:35:04.435Z,72.76
2023-02-17T05:37:33.443Z,72.79
2023-02-17T05:40:01.151Z,72.85
2023-02-17T05:42:29.041Z,72.88
2023-02-17T05:44:57.035Z,73.02
2023-02-17T05:47:27.290Z,72.94
2023-02-17T05:49:55.287Z,73.00
2023-02-17T05:52:23.067Z,73.17
2023-02-17T05:54:52.142Z,73.22
2023-02-17T05:57:20.041Z,73.26
2023-02-17T05:59:47.793Z,73.65
2023-02-17T06:02:15.480Z,73.78
2023-02-17T06:04:43.227Z,73.59
2023-02-17T06:07:11.102Z,73.30
2023-02-17T06:09:38.878Z,73.43
2023-02-17T06:12:08.185Z,73.49
2023-02-17T06:14:35.952Z,73.67
2023-02-17T06:17:04.384Z,73.38
2023-02-17T06:19:32.093Z,73.29
2023-02-17T06:21:59.826Z,73.55
2023-02-17T06:24:27.601Z,73.35
2023-02-17T06:26:55.324Z,72.86
2023-02-17T06:29:24.477Z,73.08
2023-02-17T06:31:52.269Z,73.31
2023-02-17T06:34:20.044Z,72.68
2023-02-17T06:36:47.839Z,73.06
2023-02-17T06:39:15.587Z,72.71
2023-02-17T06:41:43.408Z,73.00
2023-02-17T06:44:11.142Z,72.76
2023-02-17T06:46:40.361Z,72.52
2023-02-17T06:49:08.092Z,72.80
2023-02-17T06:51:35.883Z,73.25
2023-02-17T06:54:03.668Z,72.66
2023-02-17T06:56:31.542Z,73.03
2023-02-17T06:58:59.279Z,73.15
2023-02-17T07:01:27.902Z,73.46
2023-02-17T07:03:57.476Z,73.38
2023-02-17T07:06:26.416Z,73.27
2023-02-17T07:08:54.778Z,73.66
2023-02-17T07:11:22.661Z,73.50
2023-02-17T07:13:50.429Z,73.66
2023-02-17T07:16:18.271Z,73.57
2023-02-17T07:18:46.143Z,73.42
2023-02-17T07:21:15.252Z,73.48
2023-02-17T07:23:43.002Z,73.77
2023-02-17T07:26:12.427Z,73.60
2023-02-17T07:28:41.660Z,73.83
2023-02-17T07:31:11.077Z,73.78
2023-02-17T07:33:40.308Z,73.47
2023-02-17T07:36:08.930Z,73.37
2023-02-17T07:38:38.985Z,73.30
2023-02-17T07:41:07.855Z,73.56
2023-02-17T07:43:35.987Z,73.10
2023-02-17T07:46:03.973Z,73.32
2023-02-17T07:48:32.147Z,74.61
2023-02-17T07:51:05.795Z,73.93
2023-02-17T07:53:33.977Z,75.14
2023-02-17T07:56:05.682Z,74.12
2023-02-17T07:58:34.152Z,73.80
2023-02-17T08:01:06.828Z,73.81
2023-02-17T08:03:34.895Z,73.41
2023-02-17T08:06:02.617Z,73.34
2023-02-17T08:08:50.275Z,73.51
2023-02-17T08:11:33.263Z,73.23
2023-02-17T08:14:01.308Z,73.25
2023-02-17T08:16:29.368Z,73.43
2023-02-17T08:18:57.756Z,73.42
2023-02-17T08:21:27.334Z,73.26
2023-02-17T08:23:55.230Z,73.02
2023-02-17T08:26:24.567Z,73.23
2023-02-17T08:28:52.373Z,73.25
2023-02-17T08:31:23.488Z,73.47
2023-02-17T08:33:52.100Z,73.38
2023-02-17T08:36:23.148Z,73.90
2023-02-17T08:38:51.390Z,73.79
2023-02-17T08:41:22.269Z,74.07
2023-02-17T08:43:51.966Z,74.34
2023-02-17T08:46:20.659Z,74.59
2023-02-17T08:48:48.454Z,74.91
2023-02-17T08:51:18.678Z,75.43
2023-02-17T08:53:46.936Z,74.82
2023-02-17T08:56:14.688Z,74.52
2023-02-17T08:58:42.393Z,74.60
2023-02-17T09:01:12.255Z,74.98
2023-02-17T09:03:41.698Z,74.92
2023-02-17T09:06:09.892Z,74.78
2023-02-17T09:08:39.306Z,74.71
2023-02-17T09:11:09.417Z,74.54
2023-02-17T09:13:38.082Z,74.61
2023-02-17T09:16:06.907Z,74.49
2023-02-17T09:18:36.291Z,74.45
2023-02-17T09:21:07.518Z,74.10
2023-02-17T09:23:35.426Z,74.25
2023-02-17T09:26:05.909Z,74.40
2023-02-17T09:28:35.061Z,74.40
2023-02-17T09:31:10.240Z,74.34
2023-02-17T09:33:40.037Z,74.47
2023-02-17T09:36:09.604Z,74.45
2023-02-17T09:38:39.871Z,74.33
2023-02-17T09:41:17.063Z,74.23
2023-02-17T09:43:45.204Z,74.40
2023-02-17T09:46:18.044Z,74.08
2023-02-17T09:48:49.175Z,74.13
2023-02-17T09:51:24.348Z,73.64
2023-02-17T09:54:01.593Z,73.33
2023-02-17T09:56:35.190Z,72.41
2023-02-17T09:59:07.759Z,72.06
2023-02-17T10:01:36.737Z,71.42
2023-02-17T10:04:11.514Z,70.66
2023-02-17T10:06:42.310Z,70.37
2023-02-17T10:09:16.557Z,70.11
2023-02-17T10:11:51.769Z,69.66
2023-02-17T10:14:25.824Z,69.21
2023-02-17T10:16:58.438Z,68.78
2023-02-17T10:19:31.632Z,68.46
2023-02-17T10:22:06.787Z,68.11
2023-02-17T10:24:34.519Z,67.57
2023-02-17T10:27:17.033Z,67.58
2023-02-17T10:29:56.966Z,68.06
2023-02-17T10:32:26.732Z,68.70
2023-02-17T10:35:13.050Z,69.28
2023-02-17T10:37:47.333Z,69.89
2023-02-17T10:40:20.479Z,70.18
2023-02-17T10:42:50.506Z,70.28
2023-02-17T10:45:27.399Z,70.64
2023-02-17T10:47:59.142Z,70.97
2023-02-17T10:50:28.274Z,71.15
2023-02-17T10:52:57.348Z,71.20
2023-02-17T10:55:34.836Z,71.47
2023-02-17T10:58:07.921Z,71.42
2023-02-17T11:00:35.707Z,71.32
2023-02-17T11:03:03.465Z,71.78
2023-02-17T11:05:34.684Z,71.46
2023-02-17T11:08:06.864Z,71.51
2023-02-17T11:10:37.314Z,71.60
2023-02-17T11:13:20.151Z,71.70
2023-02-17T11:15:48.748Z,72.08
2023-02-17T11:18:22.716Z,72.09
2023-02-17T11:21:01.321Z,72.13
2023-02-17T11:23:29.405Z,72.41
2023-02-17T11:26:11.498Z,72.07
2023-02-17T11:28:39.193Z,72.05
2023-02-17T11:31:07.471Z,72.44
2023-02-17T11:33:37.769Z,72.33
2023-02-17T11:36:10.601Z,72.43
2023-02-17T11:38:45.244Z,72.10
2023-02-17T11:41:13.123Z,72.27
2023-02-17T11:43:51.670Z,72.28
2023-02-17T11:46:28.590Z,72.25
2023-02-17T11:49:31.734Z,72.51
2023-02-17T11:52:13.026Z,72.41
2023-02-17T11:54:54.924Z,72.55
2023-02-17T11:57:37.975Z,72.69
2023-02-17T12:00:16.957Z,72.41
2023-02-17T12:03:14.120Z,72.17
2023-02-17T12:05:57.249Z,72.19
2023-02-17T12:08:39.349Z,72.22
2023-02-17T12:11:16.924Z,71.87
2023-02-17T12:14:09.326Z,71.52
2023-02-17T12:16:49.334Z,70.62
2023-02-17T12:19:46.733Z,70.11
2023-02-17T12:22:19.737Z,70.37
2023-02-17T12:25:15.962Z,70.02
2023-02-17T12:27:55.091Z,69.34
2023-02-17T12:30:32.957Z,68.82
2023-02-17T12:33:25.777Z,68.49
2023-02-17T12:35:56.171Z,67.98
2023-02-17T12:38:30.622Z,67.66
2023-02-17T12:41:07.874Z,67.98
2023-02-17T12:43:42.142Z,68.41
2023-02-17T12:46:13.639Z,69.08
2023-02-17T12:48:46.897Z,69.46
2023-02-17T12:51:22.095Z,70.06
2023-02-17T12:53:54.776Z,70.15
2023-02-17T12:56:40.979Z,70.49
2023-02-17T12:59:15.174Z,70.26
2023-02-17T13:01:54.078Z,70.38
2023-02-17T13:04:26.236Z,70.79
2023-02-17T13:07:02.481Z,71.03
2023-02-17T13:09:35.938Z,70.87
2023-02-17T13:12:27.538Z,71.09
2023-02-17T13:14:56.674Z,71.32
2023-02-17T13:17:27.312Z,70.91
2023-02-17T13:20:05.862Z,71.03
2023-02-17T13:22:33.618Z,71.16
2023-02-17T13:25:01.336Z,71.15
2023-02-17T13:27:36.424Z,71.45
2023-02-17T13:30:09.468Z,71.18
2023-02-17T13:32:39.096Z,71.07
2023-02-17T13:35:08.816Z,71.17
2023-02-17T13:37:43.103Z,71.31
2023-02-17T13:40:43.641Z,71.38
2023-02-17T13:43:17.037Z,71.08
2023-02-17T13:45:48.239Z,71.33
2023-02-17T13:48:25.100Z,71.27
2023-02-17T13:50:53.715Z,71.08
2023-02-17T13:53:25.661Z,71.19
2023-02-17T13:55:53.959Z,71.33
2023-02-17T13:58:30.874Z,71.32
2023-02-17T14:01:00.265Z,70.91
2023-02-17T14:03:30.615Z,70.50
2023-02-17T14:06:00.291Z,69.73
2023-02-17T14:08:35.105Z,68.99
2023-02-17T14:11:10.231Z,68.71
2023-02-17T14:13:41.467Z,67.71
2023-02-17T14:16:26.860Z,67.42
2023-02-17T14:19:05.029Z,66.42
2023-02-17T14:21:33.270Z,65.99
2023-02-17T14:24:02.387Z,66.25
2023-02-17T14:26:33.401Z,66.58
2023-02-17T14:29:05.054Z,66.90
2023-02-17T14:31:38.974Z,67.36
2023-02-17T14:34:07.489Z,68.17
2023-02-17T14:36:37.573Z,68.58
2023-02-17T14:39:08.441Z,68.47
2023-02-17T14:41:36.294Z,68.77
2023-02-17T14:44:06.076Z,68.69
2023-02-17T14:46:34.414Z,69.26
2023-02-17T14:49:02.870Z,69.45
2023-02-17T14:51:35.025Z,69.55
2023-02-17T14:54:03.414Z,69.65
2023-02-17T14:56:34.985Z,69.64
2023-02-17T14:59:02.805Z,69.64
2023-02-17T15:01:32.093Z,70.03
2023-02-17T15:04:00.058Z,69.83
2023-02-17T15:06:32.628Z,70.10
2023-02-17T15:09:02.283Z,70.19
2023-02-17T15:11:34.466Z,70.35
2023-02-17T15:14:03.616Z,70.44
2023-02-17T15:16:32.952Z,70.08
2023-02-17T15:19:00.714Z,70.61
2023-02-17T15:21:30.229Z,70.36
2023-02-17T15:24:00.215Z,70.34
2023-02-17T15:26:28.701Z,70.44
2023-02-17T15:28:57.098Z,70.73
2023-02-17T15:31:25.656Z,70.69
2023-02-17T15:33:57.756Z,70.44
2023-02-17T15:36:26.412Z,70.68
2023-02-17T15:38:54.567Z,70.74
2023-02-17T15:41:25.457Z,70.56
2023-02-17T15:43:54.582Z,70.71
2023-02-17T15:46:27.289Z,70.79
2023-02-17T15:48:56.393Z,70.79
2023-02-17T15:51:24.820Z,70.56
2023-02-17T15:53:52.803Z,70.89
2023-02-17T15:56:23.241Z,71.03
2023-02-17T15:58:51.967Z,70.94
2023-02-17T16:01:28.032Z,71.05
2023-02-17T16:03:57.702Z,70.78
2023-02-17T16:06:25.790Z,71.29
2023-02-17T16:08:53.683Z,70.91
2023-02-17T16:11:22.539Z,71.45
2023-02-17T16:13:50.977Z,71.43
2023-02-17T16:16:20.696Z,71.05
2023-02-17T16:18:49.334Z,71.39
2023-02-17T16:21:19.327Z,70.98
2023-02-17T16:23:47.287Z,70.91
2023-02-17T16:26:23.206Z,71.32
2023-02-17T16:28:50.929Z,71.37
2023-02-17T16:31:18.849Z,71.40
2023-02-17T16:33:46.658Z,71.26
2023-02-17T16:36:16.645Z,71.15
2023-02-17T16:38:46.970Z,71.26
2023-02-17T16:41:15.608Z,71.22
2023-02-17T16:43:43.791Z,71.41
2023-02-17T16:46:20.951Z,71.64
2023-02-17T16:48:48.692Z,71.60
2023-02-17T16:51:16.471Z,71.41
2023-02-17T16:53:45.551Z,71.17
2023-02-17T16:56:19.515Z,71.24
2023-02-17T16:58:47.254Z,71.29
2023-02-17T17:01:15.059Z,71.55
2023-02-17T17:03:43.852Z,71.52
2023-02-17T17:06:20.511Z,71.22
2023-02-17T17:08:50.049Z,71.11
2023-02-17T17:11:23.092Z,71.44
2023-02-17T17:13:51.324Z,71.46
2023-02-17T17:16:22.560Z,71.57
2023-02-17T17:18:50.449Z,71.43
2023-02-17T17:21:19.667Z,71.52
2023-02-17T17:23:50.659Z,71.31
2023-02-17T17:26:25.618Z,71.67
2023-02-17T17:28:53.676Z,71.54
2023-02-17T17:31:22.943Z,71.56
2023-02-17T17:33:51.618Z,71.41
2023-02-17T17:36:24.652Z,71.40
2023-02-17T17:38:55.225Z,71.60
2023-02-17T17:41:24.392Z,71.78
2023-02-17T17:43:52.411Z,71.75
2023-02-17T17:46:22.531Z,71.71
2023-02-17T17:48:50.425Z,71.64
2023-02-17T17:51:20.603Z,71.49
2023-02-17T17:53:48.606Z,71.66
2023-02-17T17:56:20.876Z,71.48
2023-02-17T17:58:48.883Z,71.62
2023-02-17T18:01:17.360Z,71.39
2023-02-17T18:03:45.113Z,71.34
2023-02-17T18:06:17.338Z,71.47
2023-02-17T18:08:46.253Z,71.43
2023-02-17T18:11:15.152Z,71.53
2023-02-17T18:13:45.871Z,71.75
2023-02-17T18:16:13.956Z,71.59
2023-02-17T18:18:42.085Z,71.60
2023-02-17T18:21:09.939Z,71.55
2023-02-17T18:23:37.660Z,71.53
2023-02-17T18:26:06.007Z,71.88
2023-02-17T18:28:34.622Z,71.65
2023-02-17T18:31:08.915Z,71.54
2023-02-17T18:33:36.775Z,71.93
2023-02-17T18:36:08.543Z,71.86
2023-02-17T18:38:36.872Z,71.42
2023-02-17T18:41:04.890Z,71.93
2023-02-17T18:43:32.800Z,71.37
2023-02-17T18:46:01.138Z,70.76
2023-02-17T18:48:30.275Z,70.04
2023-02-17T18:50:58.026Z,69.28
2023-02-17T18:53:25.979Z,68.70
2023-02-17T18:55:53.684Z,68.29
2023-02-17T18:58:21.388Z,67.95
2023-02-17T19:00:49.118Z,67.69
2023-02-17T19:03:16.839Z,67.63
2023-02-17T19:05:45.963Z,67.69
2023-02-17T19:08:14.181Z,67.94
2023-02-17T19:10:41.999Z,68.66
2023-02-17T19:13:09.729Z,69.03
2023-02-17T19:15:38.039Z,69.02
2023-02-17T19:18:06.254Z,69.59
2023-02-17T19:20:34.469Z,69.84
2023-02-17T19:23:04.022Z,69.64
2023-02-17T19:25:31.762Z,69.96
2023-02-17T19:27:59.618Z,70.42
2023-02-17T19:30:27.340Z,70.54
2023-02-17T19:32:55.231Z,70.66
2023-02-17T19:35:23.001Z,70.28
2023-02-17T19:37:50.663Z,70.31
2023-02-17T19:40:20.272Z,70.46
2023-02-17T19:42:48.021Z,70.42
2023-02-17T19:45:15.915Z,70.71
2023-02-17T19:47:43.615Z,70.79
2023-02-17T19:50:11.522Z,70.92
2023-02-17T19:52:39.483Z,70.93
2023-02-17T19:55:09.719Z,71.07
2023-02-17T19:57:38.881Z,70.99
2023-02-17T20:00:09.923Z,70.78
2023-02-17T20:02:38.233Z,70.92
2023-02-17T20:05:06.332Z,70.92
2023-02-17T20:07:34.102Z,71.13
2023-02-17T20:10:01.806Z,71.20
2023-02-17T20:12:29.556Z,71.12
2023-02-17T20:14:58.919Z,70.85
2023-02-17T20:17:26.638Z,71.16
2023-02-17T20:19:54.444Z,71.04
2023-02-17T20:22:22.235Z,71.41
2023-02-17T20:24:50.022Z,71.32
2023-02-17T20:27:17.784Z,71.32
2023-02-17T20:29:45.542Z,71.02
2023-02-17T20:32:14.798Z,71.34
2023-02-17T20:34:42.825Z,71.39
2023-02-17T20:37:11.212Z,71.27
2023-02-17T20:39:40.170Z,71.32
2023-02-17T20:42:07.928Z,71.60
2023-02-17T20:44:36.236Z,71.44
2023-02-17T20:47:04.477Z,71.26
2023-02-17T20:49:33.619Z,71.47
2023-02-17T20:52:01.299Z,71.57
2023-02-17T20:54:29.050Z,71.53
2023-02-17T20:56:59.209Z,71.08
2023-02-17T20:59:27.156Z,71.57
2023-02-17T21:01:55.053Z,71.44
2023-02-17T21:04:22.805Z,71.37
2023-02-17T21:06:51.920Z,71.69
2023-02-17T21:09:20.223Z,71.47
2023-02-17T21:11:48.863Z,71.88
2023-02-17T21:14:16.658Z,71.49
2023-02-17T21:16:44.974Z,71.75
2023-02-17T21:19:12.966Z,71.57
2023-02-17T21:21:40.959Z,71.47
2023-02-17T21:24:10.203Z,71.90
2023-02-17T21:26:38.028Z,71.68
2023-02-17T21:29:05.949Z,71.98
2023-02-17T21:31:34.114Z,71.98
2023-02-17T21:34:01.944Z,72.06
2023-02-17T21:36:29.773Z,71.92
2023-02-17T21:38:57.948Z,72.05
2023-02-17T21:41:30.257Z,71.69
2023-02-17T21:44:15.927Z,72.13
2023-02-17T21:46:44.283Z,71.86
2023-02-17T21:49:12.690Z,72.16
2023-02-17T21:51:41.112Z,71.78
2023-02-17T21:54:09.513Z,72.09
2023-02-17T21:56:39.314Z,71.93
2023-02-17T21:59:07.182Z,71.84
2023-02-17T22:01:35.299Z,71.80
2023-02-17T22:04:03.548Z,71.78
2023-02-17T22:06:33.120Z,71.77
2023-02-17T22:09:01.218Z,72.15
2023-02-17T22:11:33.055Z,71.91
2023-02-17T22:14:03.750Z,72.01
2023-02-17T22:16:32.816Z,72.14
2023-02-17T22:19:01.196Z,72.09
2023-02-17T22:21:29.309Z,72.09
2023-02-17T22:23:58.574Z,72.13
2023-02-17T22:26:27.113Z,72.03
2023-02-17T22:28:55.181Z,71.89
2023-02-17T22:31:25.960Z,72.18
2023-02-17T22:33:53.768Z,72.02
2023-02-17T22:36:24.383Z,71.85
2023-02-17T22:38:52.515Z,72.16
2023-02-17T22:41:23.064Z,72.16
2023-02-17T22:43:51.980Z,72.11
2023-02-17T22:46:21.764Z,72.25
2023-02-17T22:48:52.537Z,72.18
2023-02-17T22:51:23.029Z,72.08
2023-02-17T22:53:50.899Z,71.86
2023-02-17T22:56:18.908Z,72.13
2023-02-17T22:58:46.668Z,71.90
2023-02-17T23:01:18.031Z,72.11
2023-02-17T23:03:47.363Z,72.04
2023-02-17T23:06:18.884Z,72.03
2023-02-17T23:08:47.651Z,72.17
2023-02-17T23:11:17.910Z,72.38
2023-02-17T23:13:45.959Z,72.25
2023-02-17T23:16:21.418Z,72.26
2023-02-17T23:18:49.262Z,71.87
2023-02-17T23:21:18.435Z,72.08
2023-02-17T23:23:46.128Z,71.82
2023-02-17T23:26:15.212Z,72.08
2023-02-17T23:28:42.935Z,72.11
2023-02-17T23:31:11.064Z,72.19
2023-02-17T23:33:39.274Z,72.16
2023-02-17T23:36:08.739Z,71.98
2023-02-17T23:38:38.121Z,71.88
2023-02-17T23:41:06.002Z,72.25
2023-02-17T23:43:33.768Z,72.26
2023-02-17T23:46:02.001Z,72.21
2023-02-17T23:48:29.774Z,71.97
2023-02-17T23:50:58.370Z,72.17
2023-02-17T23:53:26.459Z,72.30
2023-02-17T23:56:03.831Z,72.36
2023-02-17T23:58:31.980Z,72.48
